sensor_id;sensor_type;location;lat;lon;timestamp;pressure;altitude;pressure_sealevel;temperature;humidity
60355;BME280;46198;51.464;-0.066;2023-03-03T00:01:03;102648.88;;;4.98;100.00
60355;BME280;46198;51.464;-0.066;2023-03-03T00:03:31;102661.91;;;4.83;100.00
60355;BME280;46198;51.464;-0.066;2023-03-03T00:05:59;102663.47;;;4.86;100.00
60355;BME280;46198;51.464;-0.066;2023-03-03T00:08:29;102655.22;;;4.87;100.00
60355;BME280;46198;51.464;-0.066;2023-03-03T00:10:58;102659.94;;;4.95;100.00
60355;BME280;46198;51.464;-0.066;2023-03-03T00:13:29;102658.81;;;4.98;100.00
60355;BME280;46198;51.464;-0.066;2023-03-03T00:16:14;102661.34;;;4.99;100.00
60355;BME280;46198;51.464;-0.066;2023-03-03T00:18:44;102654.81;;;4.92;100.00
60355;BME280;46198;51.464;-0.066;2023-03-03T00:21:24;102655.09;;;4.99;100.00
60355;BME280;46198;51.464;-0.066;2023-03-03T00:24:13;102659.81;;;4.97;100.00
60355;BME280;46198;51.464;-0.066;2023-03-03T00:26:44;102665.19;;;4.97;100.00
60355;BME280;46198;51.464;-0.066;2023-03-03T00:29:26;102674.13;;;4.97;100.00
60355;BME280;46198;51.464;-0.066;2023-03-03T00:32:03;102673.44;;;5.05;100.00
60355;BME280;46198;51.464;-0.066;2023-03-03T00:34:37;102672.09;;;4.99;100.00
60355;BME280;46198;51.464;-0.066;2023-03-03T00:37:22;102678.38;;;5.00;100.00
60355;BME280;46198;51.464;-0.066;2023-03-03T00:39:50;102698.19;;;4.99;100.00
60355;BME280;46198;51.464;-0.066;2023-03-03T00:42:18;102679.50;;;5.07;100.00
60355;BME280;46198;51.464;-0.066;2023-03-03T00:44:47;102679.78;;;5.04;100.00
60355;BME280;46198;51.464;-0.066;2023-03-03T00:47:29;102680.34;;;5.07;100.00
60355;BME280;46198;51.464;-0.066;2023-03-03T00:50:26;102676.69;;;5.08;100.00
60355;BME280;46198;51.464;-0.066;2023-03-03T00:53:04;102676.69;;;5.08;100.00
60355;BME280;46198;51.464;-0.066;2023-03-03T00:55:33;102674.56;;;5.12;100.00
60355;BME280;46198;51.464;-0.066;2023-03-03T00:58:02;102676.13;;;5.15;100.00
60355;BME280;46198;51.464;-0.066;2023-03-03T01:00:35;102674.44;;;5.14;100.00
60355;BME280;46198;51.464;-0.066;2023-03-03T01:03:07;102678.25;;;5.11;100.00
60355;BME280;46198;51.464;-0.066;2023-03-03T01:05:35;102679.53;;;5.17;100.00
60355;BME280;46198;51.464;-0.066;2023-03-03T01:08:04;102684.06;;;5.16;100.00
60355;BME280;46198;51.464;-0.066;2023-03-03T01:10:35;102679.13;;;5.21;100.00
60355;BME280;46198;51.464;-0.066;2023-03-03T01:13:05;102681.38;;;5.16;100.00
60355;BME280;46198;51.464;-0.066;2023-03-03T01:15:33;102677.41;;;5.20;100.00
60355;BME280;46198;51.464;-0.066;2023-03-03T01:18:02;102688.63;;;5.25;100.00
60355;BME280;46198;51.464;-0.066;2023-03-03T01:20:31;102696.25;;;5.20;100.00
60355;BME280;46198;51.464;-0.066;2023-03-03T01:22:59;102688.91;;;5.22;100.00
60355;BME280;46198;51.464;-0.066;2023-03-03T01:25:28;102688.91;;;5.22;100.00
60355;BME280;46198;51.464;-0.066;2023-03-03T01:27:57;102695.69;;;5.26;100.00
60355;BME280;46198;51.464;-0.066;2023-03-03T01:30:25;102685.19;;;5.23;100.00
60355;BME280;46198;51.464;-0.066;2023-03-03T01:32:54;102692.16;;;5.26;100.00
60355;BME280;46198;51.464;-0.066;2023-03-03T01:35:22;102695.97;;;5.23;100.00
60355;BME280;46198;51.464;-0.066;2023-03-03T01:37:51;102697.69;;;5.24;100.00
60355;BME280;46198;51.464;-0.066;2023-03-03T01:40:21;102692.16;;;5.26;100.00
60355;BME280;46198;51.464;-0.066;2023-03-03T01:42:49;102695.56;;;5.28;100.00
60355;BME280;46198;51.464;-0.066;2023-03-03T01:45:21;102688.34;;;5.28;100.00
60355;BME280;46198;51.464;-0.066;2023-03-03T01:47:53;102697.41;;;5.27;100.00
60355;BME280;46198;51.464;-0.066;2023-03-03T01:50:39;102692.88;;;5.28;100.00
60355;BME280;46198;51.464;-0.066;2023-03-03T01:53:14;102693.88;;;5.27;100.00
60355;BME280;46198;51.464;-0.066;2023-03-03T01:55:45;102692.31;;;5.24;100.00
60355;BME280;46198;51.464;-0.066;2023-03-03T01:58:17;102690.19;;;5.28;100.00
60355;BME280;46198;51.464;-0.066;2023-03-03T02:00:49;102688.03;;;5.31;100.00
60355;BME280;46198;51.464;-0.066;2023-03-03T02:03:19;102688.63;;;5.25;100.00
60355;BME280;46198;51.464;-0.066;2023-03-03T02:05:49;102692.16;;;5.26;100.00
60355;BME280;46198;51.464;-0.066;2023-03-03T02:08:25;102684.66;;;5.29;100.00
60355;BME280;46198;51.464;-0.066;2023-03-03T02:10:56;102687.88;;;5.23;100.00
60355;BME280;46198;51.464;-0.066;2023-03-03T02:13:24;102695.97;;;5.23;100.00
60355;BME280;46198;51.464;-0.066;2023-03-03T02:15:54;102690.03;;;5.20;100.00
60355;BME280;46198;51.464;-0.066;2023-03-03T02:18:23;102693.44;;;5.22;100.00
60355;BME280;46198;51.464;-0.066;2023-03-03T02:20:56;102688.91;;;5.22;100.00
60355;BME280;46198;51.464;-0.066;2023-03-03T02:23:32;102689.31;;;5.18;100.00
60355;BME280;46198;51.464;-0.066;2023-03-03T02:26:08;102698.53;;;5.25;100.00
60355;BME280;46198;51.464;-0.066;2023-03-03T02:28:38;102691.16;;;5.17;100.00
60355;BME280;46198;51.464;-0.066;2023-03-03T02:31:11;102693.84;;;5.17;100.00
60355;BME280;46198;51.464;-0.066;2023-03-03T02:33:42;102700.91;;;5.18;100.00
60355;BME280;46198;51.464;-0.066;2023-03-03T02:36:11;102695.13;;;5.13;100.00
60355;BME280;46198;51.464;-0.066;2023-03-03T02:38:45;102697.25;;;5.19;100.00
60355;BME280;46198;51.464;-0.066;2023-03-03T02:41:24;102691.16;;;5.17;100.00
60355;BME280;46198;51.464;-0.066;2023-03-03T02:43:58;102696.25;;;5.20;100.00
60355;BME280;46198;51.464;-0.066;2023-03-03T02:46:27;102696.97;;;5.22;100.00
60355;BME280;46198;51.464;-0.066;2023-03-03T02:48:56;102687.47;;;5.18;100.00
60355;BME280;46198;51.464;-0.066;2023-03-03T02:51:24;102689.63;;;5.24;100.00
60355;BME280;46198;51.464;-0.066;2023-03-03T02:53:52;102697.25;;;5.19;100.00
60355;BME280;46198;51.464;-0.066;2023-03-03T02:56:22;102691.16;;;5.17;100.00
60355;BME280;46198;51.464;-0.066;2023-03-03T02:58:50;102698.22;;;5.18;100.00
60355;BME280;46198;51.464;-0.066;2023-03-03T03:01:20;102700.06;;;5.18;100.00
60355;BME280;46198;51.464;-0.066;2023-03-03T03:03:49;102700.78;;;5.20;100.00
60355;BME280;46198;51.464;-0.066;2023-03-03T03:06:20;102698.66;;;5.14;100.00
60355;BME280;46198;51.464;-0.066;2023-03-03T03:08:48;102702.19;;;5.14;100.00
60355;BME280;46198;51.464;-0.066;2023-03-03T03:11:16;102698.22;;;5.08;100.00
60355;BME280;46198;51.464;-0.066;2023-03-03T03:13:46;102699.50;;;5.14;100.00
60355;BME280;46198;51.464;-0.066;2023-03-03T03:16:14;102704.06;;;5.14;100.00
60355;BME280;46198;51.464;-0.066;2023-03-03T03:18:42;102703.06;;;5.15;100.00
60355;BME280;46198;51.464;-0.066;2023-03-03T03:21:12;102698.50;;;5.15;100.00
60355;BME280;46198;51.464;-0.066;2023-03-03T03:23:41;102703.44;;;5.10;100.00
60355;BME280;46198;51.464;-0.066;2023-03-03T03:26:10;102702.75;;;5.08;100.00
60355;BME280;46198;51.464;-0.066;2023-03-03T03:28:39;102698.06;;;5.10;100.00
60355;BME280;46198;51.464;-0.066;2023-03-03T03:31:09;102697.66;;;5.15;100.00
60355;BME280;46198;51.464;-0.066;2023-03-03T03:33:37;102697.66;;;5.15;100.00
60355;BME280;46198;51.464;-0.066;2023-03-03T03:36:06;102707.59;;;5.14;100.00
60355;BME280;46198;51.464;-0.066;2023-03-03T03:38:36;102700.91;;;5.18;100.00
60355;BME280;46198;51.464;-0.066;2023-03-03T03:41:06;102703.91;;;5.15;100.00
60355;BME280;46198;51.464;-0.066;2023-03-03T03:43:34;102716.38;;;5.16;100.00
60355;BME280;46198;51.464;-0.066;2023-03-03T03:46:03;102715.25;;;5.19;100.00
60355;BME280;46198;51.464;-0.066;2023-03-03T03:48:33;102713.97;;;5.13;100.00
60355;BME280;46198;51.464;-0.066;2023-03-03T03:51:04;102716.09;;;5.19;100.00
60355;BME280;46198;51.464;-0.066;2023-03-03T03:53:33;102715.09;;;5.20;100.00
60355;BME280;46198;51.464;-0.066;2023-03-03T03:56:01;102715.94;;;5.21;100.00
60355;BME280;46198;51.464;-0.066;2023-03-03T03:58:29;102722.47;;;5.18;100.00
60355;BME280;46198;51.464;-0.066;2023-03-03T04:01:05;102718.94;;;5.18;100.00
60355;BME280;46198;51.464;-0.066;2023-03-03T04:03:40;102717.34;;;5.15;100.00
60355;BME280;46198;51.464;-0.066;2023-03-03T04:06:11;102718.06;;;5.17;100.00
60355;BME280;46198;51.464;-0.066;2023-03-03T04:08:40;102714.09;;;5.11;100.00
60355;BME280;46198;51.464;-0.066;2023-03-03T04:11:09;102719.50;;;5.11;100.00
60355;BME280;46198;51.464;-0.066;2023-03-03T04:13:37;102724.03;;;5.11;100.00
60355;BME280;46198;51.464;-0.066;2023-03-03T04:16:07;102723.69;;;5.04;100.00
60355;BME280;46198;51.464;-0.066;2023-03-03T04:18:36;102721.16;;;5.03;100.00
60355;BME280;46198;51.464;-0.066;2023-03-03T04:21:10;102729.97;;;5.05;100.00
60355;BME280;46198;51.464;-0.066;2023-03-03T04:23:39;102731.94;;;5.03;100.00
60355;BME280;46198;51.464;-0.066;2023-03-03T04:26:07;102724.81;;;5.02;100.00
60355;BME280;46198;51.464;-0.066;2023-03-03T04:28:36;102724.59;;;5.05;100.00
60355;BME280;46198;51.464;-0.066;2023-03-03T04:31:05;102723.69;;;5.04;100.00
60355;BME280;46198;51.464;-0.066;2023-03-03T04:33:33;102726.41;;;5.04;100.00
60355;BME280;46198;51.464;-0.066;2023-03-03T04:36:03;102717.47;;;5.04;100.00
60355;BME280;46198;51.464;-0.066;2023-03-03T04:38:33;102719.44;;;5.02;100.00
60355;BME280;46198;51.464;-0.066;2023-03-03T04:41:01;102728.25;;;5.04;100.00
60355;BME280;46198;51.464;-0.066;2023-03-03T04:43:33;102722.84;;;5.04;100.00
60355;BME280;46198;51.464;-0.066;2023-03-03T04:46:03;102722.41;;;4.99;100.00
60355;BME280;46198;51.464;-0.066;2023-03-03T04:48:32;102717.31;;;4.96;100.00
60355;BME280;46198;51.464;-0.066;2023-03-03T04:51:00;102722.84;;;4.94;100.00
60355;BME280;46198;51.464;-0.066;2023-03-03T04:53:30;102724.41;;;4.97;100.00
60355;BME280;46198;51.464;-0.066;2023-03-03T04:55:59;102724.13;;;5.00;100.00
60355;BME280;46198;51.464;-0.066;2023-03-03T04:58:28;102715.34;;;4.98;100.00
60355;BME280;46198;51.464;-0.066;2023-03-03T05:00:56;102723.69;;;4.95;100.00
60355;BME280;46198;51.464;-0.066;2023-03-03T05:03:26;102716.88;;;4.91;100.00
60355;BME280;46198;51.464;-0.066;2023-03-03T05:05:55;102728.22;;;4.94;100.00
60355;BME280;46198;51.464;-0.066;2023-03-03T05:08:23;102725.66;;;4.93;100.00
60355;BME280;46198;51.464;-0.066;2023-03-03T05:10:51;102738.66;;;4.87;100.00
60355;BME280;46198;51.464;-0.066;2023-03-03T05:13:21;102734.13;;;4.88;100.00
60355;BME280;46198;51.464;-0.066;2023-03-03T05:15:49;102734.56;;;4.83;100.00
60355;BME280;46198;51.464;-0.066;2023-03-03T05:18:18;102736.69;;;4.89;100.00
60355;BME280;46198;51.464;-0.066;2023-03-03T05:20:47;102731.31;;;4.89;100.00
60355;BME280;46198;51.464;-0.066;2023-03-03T05:23:15;102738.41;;;4.91;100.00
60355;BME280;46198;51.464;-0.066;2023-03-03T05:25:43;102739.25;;;4.91;100.00
60355;BME280;46198;51.464;-0.066;2023-03-03T05:28:11;102738.41;;;4.91;100.00
60355;BME280;46198;51.464;-0.066;2023-03-03T05:30:40;102736.53;;;4.81;100.00
60355;BME280;46198;51.464;-0.066;2023-03-03T05:33:09;102732.44;;;4.87;100.00
60355;BME280;46198;51.464;-0.066;2023-03-03T05:35:39;102735.25;;;4.85;100.00
60355;BME280;46198;51.464;-0.066;2023-03-03T05:38:08;102736.97;;;4.86;100.00
60355;BME280;46198;51.464;-0.066;2023-03-03T05:40:36;102738.38;;;4.81;100.00
60355;BME280;46198;51.464;-0.066;2023-03-03T05:43:04;102733.84;;;4.81;100.00
60355;BME280;46198;51.464;-0.066;2023-03-03T05:45:33;102733.56;;;4.84;100.00
60355;BME280;46198;51.464;-0.066;2023-03-03T05:48:03;102738.22;;;4.82;100.00
60355;BME280;46198;51.464;-0.066;2023-03-03T05:50:31;102733.56;;;4.84;100.00
60355;BME280;46198;51.464;-0.066;2023-03-03T05:52:59;102732.56;;;4.85;100.00
60355;BME280;46198;51.464;-0.066;2023-03-03T05:55:27;102731.88;;;4.83;100.00
60355;BME280;46198;51.464;-0.066;2023-03-03T05:57:55;102732.84;;;4.82;100.00
60355;BME280;46198;51.464;-0.066;2023-03-03T06:00:23;102721.09;;;4.83;100.00
60355;BME280;46198;51.464;-0.066;2023-03-03T06:02:51;102720.81;;;4.86;100.00
60355;BME280;46198;51.464;-0.066;2023-03-03T06:05:21;102722.53;;;4.87;100.00
60355;BME280;46198;51.464;-0.066;2023-03-03T06:07:49;102720.81;;;4.86;100.00
60355;BME280;46198;51.464;-0.066;2023-03-03T06:10:17;102730.88;;;4.84;100.00
60355;BME280;46198;51.464;-0.066;2023-03-03T06:12:50;102724.75;;;4.82;100.00
60355;BME280;46198;51.464;-0.066;2023-03-03T06:15:19;102723.06;;;4.81;100.00
60355;BME280;46198;51.464;-0.066;2023-03-03T06:17:47;102722.22;;;4.81;100.00
60355;BME280;46198;51.464;-0.066;2023-03-03T06:20:15;102723.06;;;4.81;100.00
60355;BME280;46198;51.464;-0.066;2023-03-03T06:22:44;102720.19;;;4.73;100.00
60355;BME280;46198;51.464;-0.066;2023-03-03T06:25:13;102726.16;;;4.77;100.00
60355;BME280;46198;51.464;-0.066;2023-03-03T06:27:41;102721.91;;;4.74;100.00
60355;BME280;46198;51.464;-0.066;2023-03-03T06:30:10;102717.78;;;4.70;100.00
60355;BME280;46198;51.464;-0.066;2023-03-03T06:32:39;102725.25;;;4.66;100.00
60355;BME280;46198;51.464;-0.066;2023-03-03T06:35:07;102719.31;;;4.63;100.00
60355;BME280;46198;51.464;-0.066;2023-03-03T06:37:35;102721.59;;;4.68;100.00
60355;BME280;46198;51.464;-0.066;2023-03-03T06:40:06;102730.34;;;4.60;100.00
60355;BME280;46198;51.464;-0.066;2023-03-03T06:42:34;102725.53;;;4.63;100.00
60355;BME280;46198;51.464;-0.066;2023-03-03T06:45:03;102732.63;;;4.64;100.00
60355;BME280;46198;51.464;-0.066;2023-03-03T06:47:31;102732.47;;;4.66;100.00
60355;BME280;46198;51.464;-0.066;2023-03-03T06:49:59;102738.72;;;4.66;100.00
60355;BME280;46198;51.464;-0.066;2023-03-03T06:52:27;102733.78;;;4.72;100.00
60355;BME280;46198;51.464;-0.066;2023-03-03T06:54:57;102736.03;;;4.66;100.00
60355;BME280;46198;51.464;-0.066;2023-03-03T06:57:28;102739.81;;;4.64;100.00
60355;BME280;46198;51.464;-0.066;2023-03-03T06:59:59;102745.66;;;4.69;100.00
60355;BME280;46198;51.464;-0.066;2023-03-03T07:02:32;102746.28;;;4.73;100.00
60355;BME280;46198;51.464;-0.066;2023-03-03T07:05:01;102749.81;;;4.73;100.00
60355;BME280;46198;51.464;-0.066;2023-03-03T07:07:29;102746.00;;;4.76;100.00
60355;BME280;46198;51.464;-0.066;2023-03-03T07:09:57;102750.53;;;4.75;100.00
60355;BME280;46198;51.464;-0.066;2023-03-03T07:12:29;102748.53;;;4.77;100.00
60355;BME280;46198;51.464;-0.066;2023-03-03T07:15:04;102753.63;;;4.71;100.00
60355;BME280;46198;51.464;-0.066;2023-03-03T07:17:43;102755.75;;;4.77;100.00
60355;BME280;46198;51.464;-0.066;2023-03-03T07:20:17;102750.25;;;4.78;100.00
60355;BME280;46198;51.464;-0.066;2023-03-03T07:22:46;102757.34;;;4.79;100.00
60355;BME280;46198;51.464;-0.066;2023-03-03T07:25:20;102754.09;;;4.85;100.00
60355;BME280;46198;51.464;-0.066;2023-03-03T07:27:51;102762.91;;;4.87;100.00
60355;BME280;46198;51.464;-0.066;2023-03-03T07:30:22;102761.91;;;4.88;100.00
60355;BME280;46198;51.464;-0.066;2023-03-03T07:32:52;102764.84;;;4.85;100.00
60355;BME280;46198;51.464;-0.066;2023-03-03T07:35:34;102766.44;;;4.88;100.00
60355;BME280;46198;51.464;-0.066;2023-03-03T07:38:15;102769.56;;;4.93;100.00
60355;BME280;46198;51.464;-0.066;2023-03-03T07:40:47;102764.78;;;4.97;100.00
60355;BME280;46198;51.464;-0.066;2023-03-03T07:43:30;102778.78;;;4.91;100.00
60355;BME280;46198;51.464;-0.066;2023-03-03T07:46:02;102776.97;;;5.01;100.00
60355;BME280;46198;51.464;-0.066;2023-03-03T07:48:35;102784.06;;;5.02;100.00
60355;BME280;46198;51.464;-0.066;2023-03-03T07:51:12;102778.56;;;5.03;100.00
60355;BME280;46198;51.464;-0.066;2023-03-03T07:53:42;102779.13;;;5.07;100.00
60355;BME280;46198;51.464;-0.066;2023-03-03T07:56:16;102790.75;;;5.07;100.00
60355;BME280;46198;51.464;-0.066;2023-03-03T07:58:50;102787.47;;;5.04;100.00
60355;BME280;46198;51.464;-0.066;2023-03-03T08:01:35;102796.00;;;5.09;100.00
60355;BME280;46198;51.464;-0.066;2023-03-03T08:04:15;102794.03;;;5.11;100.00
60355;BME280;46198;51.464;-0.066;2023-03-03T08:06:46;102803.81;;;5.12;100.00
60355;BME280;46198;51.464;-0.066;2023-03-03T08:09:29;102804.66;;;5.13;100.00
60355;BME280;46198;51.464;-0.066;2023-03-03T08:12:16;102814.75;;;5.20;100.00
60355;BME280;46198;51.464;-0.066;2023-03-03T08:14:46;102811.94;;;5.22;100.00
60355;BME280;46198;51.464;-0.066;2023-03-03T08:17:19;102803.13;;;5.20;100.00
60355;BME280;46198;51.464;-0.066;2023-03-03T08:19:48;102815.66;;;5.30;100.00
60355;BME280;46198;51.464;-0.066;2023-03-03T08:22:19;102809.41;;;5.30;100.00
60355;BME280;46198;51.464;-0.066;2023-03-03T08:24:51;102815.91;;;5.27;100.00
60355;BME280;46198;51.464;-0.066;2023-03-03T08:27:19;102820.47;;;5.27;100.00
60355;BME280;46198;51.464;-0.066;2023-03-03T08:29:48;102813.41;;;5.36;100.00
60355;BME280;46198;51.464;-0.066;2023-03-03T08:32:16;102823.63;;;5.42;100.00
60355;BME280;46198;51.464;-0.066;2023-03-03T08:34:45;102815.41;;;5.43;100.00
60355;BME280;46198;51.464;-0.066;2023-03-03T08:37:12;102812.44;;;5.56;100.00
60355;BME280;46198;51.464;-0.066;2023-03-03T08:39:40;102811.47;;;5.57;100.00
60355;BME280;46198;51.464;-0.066;2023-03-03T08:42:09;102820.16;;;5.70;100.00
60355;BME280;46198;51.464;-0.066;2023-03-03T08:44:40;102816.03;;;5.66;100.00
60355;BME280;46198;51.464;-0.066;2023-03-03T08:47:10;102809.09;;;5.73;100.00
60355;BME280;46198;51.464;-0.066;2023-03-03T08:49:38;102805.13;;;5.77;100.00
60355;BME280;46198;51.464;-0.066;2023-03-03T08:52:06;102804.81;;;5.81;100.00
60355;BME280;46198;51.464;-0.066;2023-03-03T08:54:34;102804.97;;;5.89;100.00
60355;BME280;46198;51.464;-0.066;2023-03-03T08:57:02;102808.25;;;5.83;100.00
60355;BME280;46198;51.464;-0.066;2023-03-03T08:59:30;102807.41;;;5.92;100.00
60355;BME280;46198;51.464;-0.066;2023-03-03T09:02:03;102800.47;;;5.99;100.00
60355;BME280;46198;51.464;-0.066;2023-03-03T09:04:35;102801.75;;;6.05;100.00
60355;BME280;46198;51.464;-0.066;2023-03-03T09:07:03;102808.44;;;6.10;100.00
60355;BME280;46198;51.464;-0.066;2023-03-03T09:09:31;102812.16;;;6.19;100.00
60355;BME280;46198;51.464;-0.066;2023-03-03T09:12:08;102807.56;;;6.29;100.00
60355;BME280;46198;51.464;-0.066;2023-03-03T09:14:39;102808.84;;;6.35;100.00
60355;BME280;46198;51.464;-0.066;2023-03-03T09:17:21;102822.63;;;6.32;100.00
60355;BME280;46198;51.464;-0.066;2023-03-03T09:19:54;102822.63;;;6.32;100.00
60355;BME280;46198;51.464;-0.066;2023-03-03T09:22:25;102819.78;;;6.43;100.00
60355;BME280;46198;51.464;-0.066;2023-03-03T09:24:57;102822.59;;;6.51;100.00
60355;BME280;46198;51.464;-0.066;2023-03-03T09:27:27;102822.03;;;6.57;100.00
60355;BME280;46198;51.464;-0.066;2023-03-03T09:30:00;102826.84;;;6.54;100.00
60355;BME280;46198;51.464;-0.066;2023-03-03T09:32:33;102831.41;;;6.63;100.00
60355;BME280;46198;51.464;-0.066;2023-03-03T09:35:25;102829.25;;;6.66;100.00
60355;BME280;46198;51.464;-0.066;2023-03-03T09:37:54;102827.75;;;6.54;100.00
60355;BME280;46198;51.464;-0.066;2023-03-03T09:40:40;102826.72;;;6.65;100.00
60355;BME280;46198;51.464;-0.066;2023-03-03T09:43:19;102823.16;;;6.64;100.00
60355;BME280;46198;51.464;-0.066;2023-03-03T09:45:58;102829.97;;;6.59;100.00
60355;BME280;46198;51.464;-0.066;2023-03-03T09:48:41;102832.25;;;6.63;99.97
60355;BME280;46198;51.464;-0.066;2023-03-03T09:51:29;102829.69;;;6.72;100.00
60355;BME280;46198;51.464;-0.066;2023-03-03T09:54:21;102834.50;;;6.78;99.82
60355;BME280;46198;51.464;-0.066;2023-03-03T09:56:53;102821.41;;;6.83;100.00
60355;BME280;46198;51.464;-0.066;2023-03-03T09:59:33;102837.19;;;6.87;98.72
60355;BME280;46198;51.464;-0.066;2023-03-03T10:02:19;102827.53;;;6.85;99.59
60355;BME280;46198;51.464;-0.066;2023-03-03T10:05:01;102821.69;;;6.90;96.72
60355;BME280;46198;51.464;-0.066;2023-03-03T10:07:40;102839.59;;;6.81;96.34
60355;BME280;46198;51.464;-0.066;2023-03-03T10:10:44;102843.06;;;6.73;97.12
60355;BME280;46198;51.464;-0.066;2023-03-03T10:13:25;102837.91;;;6.80;98.60
60355;BME280;46198;51.464;-0.066;2023-03-03T10:16:16;102835.03;;;6.91;96.53
60355;BME280;46198;51.464;-0.066;2023-03-03T10:18:51;102839.69;;;6.99;97.69
60355;BME280;46198;51.464;-0.066;2023-03-03T10:21:24;102842.28;;;7.00;97.00
60355;BME280;46198;51.464;-0.066;2023-03-03T10:24:02;102858.75;;;6.97;96.94
60355;BME280;46198;51.464;-0.066;2023-03-03T10:26:44;102853.06;;;7.00;95.60
60355;BME280;46198;51.464;-0.066;2023-03-03T10:29:40;102857.03;;;7.06;96.35
60355;BME280;46198;51.464;-0.066;2023-03-03T10:32:33;102856.47;;;7.02;93.58
60355;BME280;46198;51.464;-0.066;2023-03-03T10:35:24;102854.75;;;7.01;93.19
60355;BME280;46198;51.464;-0.066;2023-03-03T10:38:09;102855.59;;;7.02;94.09
60355;BME280;46198;51.464;-0.066;2023-03-03T10:40:46;102861.19;;;7.00;93.00
60355;BME280;46198;51.464;-0.066;2023-03-03T10:43:30;102854.75;;;7.01;92.46
60355;BME280;46198;51.464;-0.066;2023-03-03T10:46:26;102852.78;;;7.03;94.43
60355;BME280;46198;51.464;-0.066;2023-03-03T10:49:29;102866.72;;;6.99;92.08
60355;BME280;46198;51.464;-0.066;2023-03-03T10:52:21;102860.72;;;7.05;93.25
60355;BME280;46198;51.464;-0.066;2023-03-03T10:57:49;102866.47;;;6.92;90.94
60355;BME280;46198;51.464;-0.066;2023-03-03T11:00:23;102861.63;;;6.86;89.01
60355;BME280;46198;51.464;-0.066;2023-03-03T11:03:19;102862.88;;;7.01;90.97
60355;BME280;46198;51.464;-0.066;2023-03-03T11:05:52;102864.69;;;7.10;89.63
60355;BME280;46198;51.464;-0.066;2023-03-03T11:08:26;102870.91;;;7.21;90.68
60355;BME280;46198;51.464;-0.066;2023-03-03T11:11:04;102864.78;;;7.28;89.45
60355;BME280;46198;51.464;-0.066;2023-03-03T11:13:41;102872.47;;;7.14;86.96
60355;BME280;46198;51.464;-0.066;2023-03-03T11:16:24;102863.63;;;7.31;90.21
60355;BME280;46198;51.464;-0.066;2023-03-03T11:19:04;102870.50;;;7.16;85.86
60355;BME280;46198;51.464;-0.066;2023-03-03T11:21:45;102872.13;;;7.36;89.09
60355;BME280;46198;51.464;-0.066;2023-03-03T11:24:27;102867.31;;;7.30;87.24
60355;BME280;46198;51.464;-0.066;2023-03-03T11:27:10;102866.31;;;7.31;84.25
60355;BME280;46198;51.464;-0.066;2023-03-03T11:30:02;102868.09;;;7.50;85.45
60355;BME280;46198;51.464;-0.066;2023-03-03T11:32:37;102867.34;;;7.58;87.68
60355;BME280;46198;51.464;-0.066;2023-03-03T11:35:21;102877.16;;;7.59;84.70
60355;BME280;46198;51.464;-0.066;2023-03-03T11:37:57;102872.03;;;7.55;82.12
60355;BME280;46198;51.464;-0.066;2023-03-03T11:40:34;102864.44;;;7.41;80.99
60355;BME280;46198;51.464;-0.066;2023-03-03T11:43:10;102869.78;;;7.51;87.36
60355;BME280;46198;51.464;-0.066;2023-03-03T11:46:04;102855.56;;;7.49;80.81
60355;BME280;46198;51.464;-0.066;2023-03-03T11:48:38;102869.66;;;7.52;80.57
60355;BME280;46198;51.464;-0.066;2023-03-03T11:51:13;102865.53;;;7.48;82.38
60355;BME280;46198;51.464;-0.066;2023-03-03T11:53:56;102864.72;;;7.38;83.43
60355;BME280;46198;51.464;-0.066;2023-03-03T11:56:27;102859.88;;;7.42;81.27
60355;BME280;46198;51.464;-0.066;2023-03-03T11:59:19;102857.81;;;7.53;82.31
60355;BME280;46198;51.464;-0.066;2023-03-03T12:01:56;102862.81;;;7.48;81.71
60355;BME280;46198;51.464;-0.066;2023-03-03T12:04:27;102868.41;;;7.47;77.30
60355;BME280;46198;51.464;-0.066;2023-03-03T12:07:10;102851.16;;;7.20;76.21
60355;BME280;46198;51.464;-0.066;2023-03-03T12:09:51;102861.22;;;7.28;75.03
60355;BME280;46198;51.464;-0.066;2023-03-03T12:12:23;102859.09;;;7.22;74.90
60355;BME280;46198;51.464;-0.066;2023-03-03T12:15:04;102867.00;;;6.96;73.03
60355;BME280;46198;51.464;-0.066;2023-03-03T12:20:42;102858.91;;;6.96;73.66
60355;BME280;46198;51.464;-0.066;2023-03-03T12:23:23;102849.78;;;7.06;76.93
60355;BME280;46198;51.464;-0.066;2023-03-03T12:26:02;102853.47;;;7.05;76.61
60355;BME280;46198;51.464;-0.066;2023-03-03T12:28:36;102853.75;;;7.02;73.22
60355;BME280;46198;51.464;-0.066;2023-03-03T12:31:22;102851.03;;;7.12;76.19
60355;BME280;46198;51.464;-0.066;2023-03-03T12:33:58;102850.03;;;7.13;75.68
60355;BME280;46198;51.464;-0.066;2023-03-03T12:37:01;102846.28;;;7.24;78.75
60355;BME280;46198;51.464;-0.066;2023-03-03T12:39:43;102838.59;;;7.29;75.40
60355;BME280;46198;51.464;-0.066;2023-03-03T12:42:23;102840.69;;;7.35;77.14
60355;BME280;46198;51.464;-0.066;2023-03-03T12:45:00;102837.97;;;7.35;78.04
60355;BME280;46198;51.464;-0.066;2023-03-03T12:47:37;102843.59;;;7.24;75.09
60355;BME280;46198;51.464;-0.066;2023-03-03T12:50:22;102833.78;;;7.23;75.48
60355;BME280;46198;51.464;-0.066;2023-03-03T12:53:00;102834.53;;;7.05;77.56
60355;BME280;46198;51.464;-0.066;2023-03-03T12:55:46;102836.69;;;7.12;79.31
60355;BME280;46198;51.464;-0.066;2023-03-03T12:58:24;102838.63;;;7.19;79.42
60355;BME280;46198;51.464;-0.066;2023-03-03T13:01:06;102840.03;;;7.23;79.80
60355;BME280;46198;51.464;-0.066;2023-03-03T13:03:41;102846.59;;;7.21;80.92
60355;BME280;46198;51.464;-0.066;2023-03-03T13:06:28;102841.47;;;7.27;80.94
60355;BME280;46198;51.464;-0.066;2023-03-03T13:09:19;102835.44;;;7.33;80.88
60355;BME280;46198;51.464;-0.066;2023-03-03T13:12:16;102838.59;;;7.29;81.57
60355;BME280;46198;51.464;-0.066;2023-03-03T13:14:51;102841.25;;;7.39;81.35
60355;BME280;46198;51.464;-0.066;2023-03-03T13:17:24;102835.66;;;7.50;80.40
60355;BME280;46198;51.464;-0.066;2023-03-03T13:19:56;102846.19;;;7.43;80.10
60355;BME280;46198;51.464;-0.066;2023-03-03T13:22:35;102838.09;;;7.43;77.62